Brantley, Alabama
Current Conditions -  °F | °C
As of 1:56 PM on Sunday 21 Dec 2014 (Local Time) from K79J Reporting Station
Overcast Overcast  
Wind Chill: 60°   Ceiling: 1000
Heat Index: 60°   Visibility: 10mi
Dew Point: 52°   Wind: 9mph
Humidity: 75%   Direction: 120°ESE
Pressure: 30.03"   Gusts: NA
Location:  31.58°N, 86.26°W
Report Text: K79J 211956Z AUTO 12008KT 10SM OVC010 16/11 A3003 RMK AO2 SLP167 T01560111
Loading
Personal Weather Stations






























Interactive Weather Map New forecast layout! Learn more

10-Day Weather Forecast

Advertisements
Track Severe Weather on mobile